Sunday, October 21, 2018, 4:42 PM GMT
Back to Local

CYYG, Charlottetown, P. E. I.

Location: , , Canada Lat: 46.283
Local Time: 4:42 PM GMT (16:42 GMT) Lon: -63.133
Time Zone: GMT Elev: 157 ft

Show me the last for .
Show Decoded

2018-10-21 16:00 METAR CYYG 211600Z 01007KT 330V050 15SM FEW020 FEW260 10/03 A2955 RMK SC1CI2 SC
                 TR CC ASOCTD SLP008 =
2018-10-21 15:00 METAR CYYG 211500Z 29005KT 250V330 15SM FEW020 FEW260 10/02 A2956 RMK SC1CI1 SC
                 TR SLP012 =
2018-10-21 14:00 METAR CYYG 211400Z 29008KT 15SM FEW020 FEW260 09/01 A2957 RMK SC1CI1 SC TR
                 SLP015 =
2018-10-21 13:00 METAR CYYG 211300Z 30007KT 15SM FEW020 FEW260 08/02 A2957 RMK SC1CI1 SC TR
                 SLP017 =
2018-10-21 12:00 METAR CYYG 211200Z 25003KT 15SM FEW020 FEW090 FEW260 07/04 A2956 RMK SC1AC1CC1
                 SC TR AC TR CC TR SLP012 =
2018-10-21 11:00 METAR CYYG 211100Z 21004KT 15SM FEW090 05/05 A2954 RMK AC1 AC TR SLP007 =
2018-10-21 10:00 METAR CYYG 211000Z 15002KT 15SM FEW090 04/04 A2952 RMK AC1 AC TR SLP000 =
2018-10-21 09:00 METAR CYYG 210900Z 31002KT 15SM SKC 06/06 A2951 RMK SLP996 =
2018-10-21 08:00 METAR CYYG 210800Z 30004KT 15SM FEW090 08/07 A2950 RMK AC1 SLP993 =
2018-10-21 07:00 METAR CYYG 210700Z 30006KT 15SM FEW093 09/08 A2949 RMK AC1 SLP989 =
2018-10-21 06:00 METAR CYYG 210600Z 27006KT 15SM SCT093 09/09 A2948 RMK AC3 SLP986 =
2018-10-21 05:00 METAR CYYG 210500Z 25006KT 15SM FEW040 SCT093 11/10 A2947 RMK SC1AC3 SLP982
                 DENSITY ALT 200FT =
2018-10-21 04:00 METAR CYYG 210400Z 21008KT 15SM FEW040 OVC093 11/10 A2946 RMK SC2AC6 SLP979
                 DENSITY ALT 300FT =
2018-10-21 03:00 METAR CYYG 210300Z 22007KT 15SM FEW014 BKN041 OVC081 12/11 A2948 RMK SC1SC4AC3
                 SLP984 DENSITY ALT 400FT =
2018-10-21 02:41 METAR CYYG 210241Z 22006KT 15SM FEW005 FEW014 BKN041 OVC082 12/11 A2947 RMK
                 SF1SC1SC4AC2 SLP983 DENSITY ALT 400FT =
2018-10-21 02:00 METAR CYYG 210200Z 21004KT 12SM -RA SCT005 BKN014 BKN045 OVC084 12/12 A2948 RMK
                 SF4SC2SC1AC1 CIG RAG SLP985 DENSITY ALT 400FT =
2018-10-21 01:00 METAR CYYG 210100Z 18009KT 12SM -RA SCT005 BKN030 OVC084 12/12 A2949 RMK
                 SF3SC4AC1 SLP987 DENSITY ALT 400FT =
2018-10-21 00:00 METAR CYYG 210000Z 19014KT 10SM -RA OVC033 12/12 A2950 RMK SC8 SLP992 DENSITY
                 ALT 400FT =
2018-10-20 23:00 METAR CYYG 202300Z 19017G24KT 5SM -RA BR SCT022 OVC052 12/12 A2950 RMK SC4SC4
                 SLP993 DENSITY ALT 400FT =
2018-10-20 22:00 METAR CYYG 202200Z 20013G20KT 3SM -RA BR OVC022 13/13 A2951 RMK SC8 SLP996
                 DENSITY ALT 400FT =
2018-10-20 21:35 METAR CYYG 202135Z 20016G21KT 3SM -RA BR OVC020 13/13 A2951 RMK SC8 SLP994
                 DENSITY ALT 500FT =
2018-10-20 21:00 METAR CYYG 202100Z 20016G24KT 15SM OVC037 14/12 A2951 RMK SC8 SLP994 DENSITY ALT
                 600FT =
2018-10-20 20:00 METAR CYYG 202000Z 20018G26KT 12SM -RA BKN038 BKN059 13/13 A2950 RMK SC5SC2
                 SLP993 DENSITY ALT 500FT =
2018-10-20 19:09 METAR CYYG 201909Z 19021G28KT 10SM -RA OVC025 15/11 A2952 RMK SC8 SLP998 DENSITY
                 ALT 600FT =
2018-10-20 19:00 METAR CYYG 201900Z 20020G29KT 15SM FEW028 BKN045 BKN260 15/11 A2952 RMK
                 SC2SC4CI1 SLP999 DENSITY ALT 700FT =
2018-10-20 18:00 METAR CYYG 201800Z 19023G32KT 15SM BKN034 BKN045 BKN120 15/11 A2954 RMK
                 SC5SC2AC1 AC TR SLP007 DENSITY ALT 600FT =
2018-10-20 17:00 METAR CYYG 201700Z 19019G30KT 15SM SCT038 BKN065 14/11 A2956 RMK SC3SC4 SLP013
                 DENSITY ALT 600FT =

Support USWX by starting your Amazon purchase here.